sensor_id;sensor_type;location;lat;lon;timestamp;temperature;humidity
13458;DHT22;6801;53.018;11.560;2023-11-21T00:02:25;9.70;85.70
13458;DHT22;6801;53.018;11.560;2023-11-21T00:04:52;9.60;85.70
13458;DHT22;6801;53.018;11.560;2023-11-21T00:07:21;9.60;85.80
13458;DHT22;6801;53.018;11.560;2023-11-21T00:09:48;9.60;85.60
13458;DHT22;6801;53.018;11.560;2023-11-21T00:12:15;9.60;85.40
13458;DHT22;6801;53.018;11.560;2023-11-21T00:14:43;9.60;85.40
13458;DHT22;6801;53.018;11.560;2023-11-21T00:17:10;9.50;85.60
13458;DHT22;6801;53.018;11.560;2023-11-21T00:19:38;9.50;85.60
13458;DHT22;6801;53.018;11.560;2023-11-21T00:22:05;9.50;85.70
13458;DHT22;6801;53.018;11.560;2023-11-21T00:24:34;9.50;85.70
13458;DHT22;6801;53.018;11.560;2023-11-21T00:27:01;9.40;85.90
13458;DHT22;6801;53.018;11.560;2023-11-21T00:29:28;9.40;85.90
13458;DHT22;6801;53.018;11.560;2023-11-21T00:31:55;9.40;85.70
13458;DHT22;6801;53.018;11.560;2023-11-21T00:34:22;9.40;85.70
13458;DHT22;6801;53.018;11.560;2023-11-21T00:36:49;9.40;85.80
13458;DHT22;6801;53.018;11.560;2023-11-21T00:39:17;9.30;85.70
13458;DHT22;6801;53.018;11.560;2023-11-21T00:41:45;9.30;85.80
13458;DHT22;6801;53.018;11.560;2023-11-21T00:44:12;9.40;85.70
13458;DHT22;6801;53.018;11.560;2023-11-21T00:46:39;9.30;85.70
13458;DHT22;6801;53.018;11.560;2023-11-21T00:49:06;9.30;85.60
13458;DHT22;6801;53.018;11.560;2023-11-21T00:51:33;9.30;85.40
13458;DHT22;6801;53.018;11.560;2023-11-21T00:54:01;9.40;84.70
13458;DHT22;6801;53.018;11.560;2023-11-21T00:56:29;9.40;84.40
13458;DHT22;6801;53.018;11.560;2023-11-21T00:58:58;9.30;84.60
13458;DHT22;6801;53.018;11.560;2023-11-21T01:01:25;9.20;84.80
13458;DHT22;6801;53.018;11.560;2023-11-21T01:03:52;9.20;85.10
13458;DHT22;6801;53.018;11.560;2023-11-21T01:06:19;9.20;85.20
13458;DHT22;6801;53.018;11.560;2023-11-21T01:08:47;9.10;85.10
13458;DHT22;6801;53.018;11.560;2023-11-21T01:11:14;9.20;85.00
13458;DHT22;6801;53.018;11.560;2023-11-21T01:13:42;9.30;84.40
13458;DHT22;6801;53.018;11.560;2023-11-21T01:16:11;9.20;84.30
13458;DHT22;6801;53.018;11.560;2023-11-21T01:18:39;9.10;84.70
13458;DHT22;6801;53.018;11.560;2023-11-21T01:21:07;9.10;85.00
13458;DHT22;6801;53.018;11.560;2023-11-21T01:23:34;9.00;85.20
13458;DHT22;6801;53.018;11.560;2023-11-21T01:26:01;9.00;85.00
13458;DHT22;6801;53.018;11.560;2023-11-21T01:28:29;9.00;85.00
13458;DHT22;6801;53.018;11.560;2023-11-21T01:30:57;9.00;85.00
13458;DHT22;6801;53.018;11.560;2023-11-21T01:33:25;9.00;84.90
13458;DHT22;6801;53.018;11.560;2023-11-21T01:35:52;9.00;84.70
13458;DHT22;6801;53.018;11.560;2023-11-21T01:38:20;9.00;84.30
13458;DHT22;6801;53.018;11.560;2023-11-21T01:40:47;9.00;84.40
13458;DHT22;6801;53.018;11.560;2023-11-21T01:43:15;8.90;84.60
13458;DHT22;6801;53.018;11.560;2023-11-21T01:45:42;8.90;84.80
13458;DHT22;6801;53.018;11.560;2023-11-21T01:48:11;9.00;84.50
13458;DHT22;6801;53.018;11.560;2023-11-21T01:50:40;8.90;84.20
13458;DHT22;6801;53.018;11.560;2023-11-21T01:53:08;8.90;84.10
13458;DHT22;6801;53.018;11.560;2023-11-21T01:55:35;8.90;84.30
13458;DHT22;6801;53.018;11.560;2023-11-21T01:58:04;8.80;84.40
13458;DHT22;6801;53.018;11.560;2023-11-21T02:00:33;8.80;84.50
13458;DHT22;6801;53.018;11.560;2023-11-21T02:03:01;8.70;84.70
13458;DHT22;6801;53.018;11.560;2023-11-21T02:05:28;8.70;84.80
13458;DHT22;6801;53.018;11.560;2023-11-21T02:07:57;8.80;84.90
13458;DHT22;6801;53.018;11.560;2023-11-21T02:10:24;8.70;84.70
13458;DHT22;6801;53.018;11.560;2023-11-21T02:12:52;8.70;84.60
13458;DHT22;6801;53.018;11.560;2023-11-21T02:15:20;8.80;84.50
13458;DHT22;6801;53.018;11.560;2023-11-21T02:17:48;8.70;84.40
13458;DHT22;6801;53.018;11.560;2023-11-21T02:20:17;8.70;84.50
13458;DHT22;6801;53.018;11.560;2023-11-21T02:22:49;8.60;84.60
13458;DHT22;6801;53.018;11.560;2023-11-21T02:25:18;8.60;84.70
13458;DHT22;6801;53.018;11.560;2023-11-21T02:27:45;8.70;84.80
13458;DHT22;6801;53.018;11.560;2023-11-21T02:30:14;8.60;84.80
13458;DHT22;6801;53.018;11.560;2023-11-21T02:32:41;8.60;84.80
13458;DHT22;6801;53.018;11.560;2023-11-21T02:35:09;8.60;84.80
13458;DHT22;6801;53.018;11.560;2023-11-21T02:37:37;8.60;84.80
13458;DHT22;6801;53.018;11.560;2023-11-21T02:40:09;8.60;84.80
13458;DHT22;6801;53.018;11.560;2023-11-21T02:42:38;8.60;84.80
13458;DHT22;6801;53.018;11.560;2023-11-21T02:45:07;8.60;85.00
13458;DHT22;6801;53.018;11.560;2023-11-21T02:47:34;8.60;84.90
13458;DHT22;6801;53.018;11.560;2023-11-21T02:50:02;8.60;84.90
13458;DHT22;6801;53.018;11.560;2023-11-21T02:52:29;8.60;84.90
13458;DHT22;6801;53.018;11.560;2023-11-21T02:54:58;8.60;84.90
13458;DHT22;6801;53.018;11.560;2023-11-21T02:57:27;8.50;85.00
13458;DHT22;6801;53.018;11.560;2023-11-21T02:59:54;8.50;85.10
13458;DHT22;6801;53.018;11.560;2023-11-21T03:02:21;8.50;84.90
13458;DHT22;6801;53.018;11.560;2023-11-21T03:04:49;8.50;84.80
13458;DHT22;6801;53.018;11.560;2023-11-21T03:07:16;8.50;84.80
13458;DHT22;6801;53.018;11.560;2023-11-21T03:09:45;8.50;84.90
13458;DHT22;6801;53.018;11.560;2023-11-21T03:12:12;8.50;84.90
13458;DHT22;6801;53.018;11.560;2023-11-21T03:14:40;8.40;84.90
13458;DHT22;6801;53.018;11.560;2023-11-21T03:17:07;8.40;84.80
13458;DHT22;6801;53.018;11.560;2023-11-21T03:19:34;8.40;84.90
13458;DHT22;6801;53.018;11.560;2023-11-21T03:22:01;8.40;84.40
13458;DHT22;6801;53.018;11.560;2023-11-21T03:24:30;8.40;84.50
13458;DHT22;6801;53.018;11.560;2023-11-21T03:26:57;8.50;84.40
13458;DHT22;6801;53.018;11.560;2023-11-21T03:29:24;8.40;84.30
13458;DHT22;6801;53.018;11.560;2023-11-21T03:31:52;8.40;84.40
13458;DHT22;6801;53.018;11.560;2023-11-21T03:34:25;8.40;84.30
13458;DHT22;6801;53.018;11.560;2023-11-21T03:36:52;8.40;84.10
13458;DHT22;6801;53.018;11.560;2023-11-21T03:39:20;8.40;84.10
13458;DHT22;6801;53.018;11.560;2023-11-21T03:41:48;8.30;84.10
13458;DHT22;6801;53.018;11.560;2023-11-21T03:44:17;8.30;84.30
13458;DHT22;6801;53.018;11.560;2023-11-21T03:46:44;8.30;84.40
13458;DHT22;6801;53.018;11.560;2023-11-21T03:49:13;8.30;84.50
13458;DHT22;6801;53.018;11.560;2023-11-21T03:51:41;8.30;84.40
13458;DHT22;6801;53.018;11.560;2023-11-21T03:54:08;8.30;84.60
13458;DHT22;6801;53.018;11.560;2023-11-21T03:56:38;8.30;84.60
13458;DHT22;6801;53.018;11.560;2023-11-21T03:59:05;8.30;84.60
13458;DHT22;6801;53.018;11.560;2023-11-21T04:01:33;8.20;84.60
13458;DHT22;6801;53.018;11.560;2023-11-21T04:04:00;8.20;84.60
13458;DHT22;6801;53.018;11.560;2023-11-21T04:06:28;8.30;84.60
13458;DHT22;6801;53.018;11.560;2023-11-21T04:08:55;8.20;84.40
13458;DHT22;6801;53.018;11.560;2023-11-21T04:11:22;8.20;84.20
13458;DHT22;6801;53.018;11.560;2023-11-21T04:13:49;8.20;84.20
13458;DHT22;6801;53.018;11.560;2023-11-21T04:16:16;8.20;84.20
13458;DHT22;6801;53.018;11.560;2023-11-21T04:18:44;8.20;84.20
13458;DHT22;6801;53.018;11.560;2023-11-21T04:21:11;8.20;84.20
13458;DHT22;6801;53.018;11.560;2023-11-21T04:23:39;8.20;84.10
13458;DHT22;6801;53.018;11.560;2023-11-21T04:26:06;8.10;84.10
13458;DHT22;6801;53.018;11.560;2023-11-21T04:28:33;8.10;84.20
13458;DHT22;6801;53.018;11.560;2023-11-21T04:31:01;8.10;84.20
13458;DHT22;6801;53.018;11.560;2023-11-21T04:33:28;8.10;84.30
13458;DHT22;6801;53.018;11.560;2023-11-21T04:35:56;8.10;84.30
13458;DHT22;6801;53.018;11.560;2023-11-21T04:38:23;8.10;84.30
13458;DHT22;6801;53.018;11.560;2023-11-21T04:40:51;8.10;84.40
13458;DHT22;6801;53.018;11.560;2023-11-21T04:43:18;8.10;84.40
13458;DHT22;6801;53.018;11.560;2023-11-21T04:45:45;8.10;84.30
13458;DHT22;6801;53.018;11.560;2023-11-21T04:48:12;8.10;84.30
13458;DHT22;6801;53.018;11.560;2023-11-21T04:50:39;8.00;84.30
13458;DHT22;6801;53.018;11.560;2023-11-21T04:53:06;8.10;84.40
13458;DHT22;6801;53.018;11.560;2023-11-21T04:55:33;8.10;84.50
13458;DHT22;6801;53.018;11.560;2023-11-21T04:58:02;8.00;84.60
13458;DHT22;6801;53.018;11.560;2023-11-21T05:00:30;8.10;84.60
13458;DHT22;6801;53.018;11.560;2023-11-21T05:02:57;8.00;84.60
13458;DHT22;6801;53.018;11.560;2023-11-21T05:05:24;8.00;84.60
13458;DHT22;6801;53.018;11.560;2023-11-21T05:07:51;8.00;84.70
13458;DHT22;6801;53.018;11.560;2023-11-21T05:10:19;8.00;84.80
13458;DHT22;6801;53.018;11.560;2023-11-21T05:12:46;8.10;84.70
13458;DHT22;6801;53.018;11.560;2023-11-21T05:15:16;8.00;84.70
13458;DHT22;6801;53.018;11.560;2023-11-21T05:17:43;8.00;84.70
13458;DHT22;6801;53.018;11.560;2023-11-21T05:20:11;8.00;84.80
13458;DHT22;6801;53.018;11.560;2023-11-21T05:22:42;8.00;84.90
13458;DHT22;6801;53.018;11.560;2023-11-21T05:25:10;8.00;84.90
13458;DHT22;6801;53.018;11.560;2023-11-21T05:27:37;8.00;84.90
13458;DHT22;6801;53.018;11.560;2023-11-21T05:30:05;7.90;85.00
13458;DHT22;6801;53.018;11.560;2023-11-21T05:32:33;7.90;85.00
13458;DHT22;6801;53.018;11.560;2023-11-21T05:35:00;7.90;85.10
13458;DHT22;6801;53.018;11.560;2023-11-21T05:37:27;7.90;85.10
13458;DHT22;6801;53.018;11.560;2023-11-21T05:39:55;7.90;85.20
13458;DHT22;6801;53.018;11.560;2023-11-21T05:42:23;7.90;85.10
13458;DHT22;6801;53.018;11.560;2023-11-21T05:44:50;7.90;85.00
13458;DHT22;6801;53.018;11.560;2023-11-21T05:47:17;7.90;84.80
13458;DHT22;6801;53.018;11.560;2023-11-21T05:49:45;7.90;84.80
13458;DHT22;6801;53.018;11.560;2023-11-21T05:52:16;7.80;84.80
13458;DHT22;6801;53.018;11.560;2023-11-21T05:54:43;7.80;85.00
13458;DHT22;6801;53.018;11.560;2023-11-21T05:57:10;7.80;85.00
13458;DHT22;6801;53.018;11.560;2023-11-21T05:59:38;7.80;85.00
13458;DHT22;6801;53.018;11.560;2023-11-21T06:02:05;7.80;85.00
13458;DHT22;6801;53.018;11.560;2023-11-21T06:04:33;7.80;85.00
13458;DHT22;6801;53.018;11.560;2023-11-21T06:07:01;7.80;84.90
13458;DHT22;6801;53.018;11.560;2023-11-21T06:09:30;7.80;84.90
13458;DHT22;6801;53.018;11.560;2023-11-21T06:11:57;7.80;84.80
13458;DHT22;6801;53.018;11.560;2023-11-21T06:14:24;7.70;84.70
13458;DHT22;6801;53.018;11.560;2023-11-21T06:16:51;7.70;84.80
13458;DHT22;6801;53.018;11.560;2023-11-21T06:19:18;7.70;84.70
13458;DHT22;6801;53.018;11.560;2023-11-21T06:21:46;7.70;84.80
13458;DHT22;6801;53.018;11.560;2023-11-21T06:24:15;7.70;84.80
13458;DHT22;6801;53.018;11.560;2023-11-21T06:26:43;7.70;84.90
13458;DHT22;6801;53.018;11.560;2023-11-21T06:29:11;7.70;84.90
13458;DHT22;6801;53.018;11.560;2023-11-21T06:31:39;7.60;84.90
13458;DHT22;6801;53.018;11.560;2023-11-21T06:34:07;7.60;84.90
13458;DHT22;6801;53.018;11.560;2023-11-21T06:36:35;7.70;85.00
13458;DHT22;6801;53.018;11.560;2023-11-21T06:39:03;7.60;85.00
13458;DHT22;6801;53.018;11.560;2023-11-21T06:41:35;7.60;84.90
13458;DHT22;6801;53.018;11.560;2023-11-21T06:44:05;7.60;84.90
13458;DHT22;6801;53.018;11.560;2023-11-21T06:46:34;7.60;85.00
13458;DHT22;6801;53.018;11.560;2023-11-21T06:49:02;7.60;84.90
13458;DHT22;6801;53.018;11.560;2023-11-21T06:51:29;7.50;84.80
13458;DHT22;6801;53.018;11.560;2023-11-21T06:53:56;7.50;84.80
13458;DHT22;6801;53.018;11.560;2023-11-21T06:56:24;7.50;84.70
13458;DHT22;6801;53.018;11.560;2023-11-21T06:58:53;7.50;84.70
13458;DHT22;6801;53.018;11.560;2023-11-21T07:01:20;7.40;84.70
13458;DHT22;6801;53.018;11.560;2023-11-21T07:03:49;7.30;84.70
13458;DHT22;6801;53.018;11.560;2023-11-21T07:06:16;7.30;84.90
13458;DHT22;6801;53.018;11.560;2023-11-21T07:08:44;7.30;85.00
13458;DHT22;6801;53.018;11.560;2023-11-21T07:11:11;7.40;85.20
13458;DHT22;6801;53.018;11.560;2023-11-21T07:13:39;7.40;85.20
13458;DHT22;6801;53.018;11.560;2023-11-21T07:16:08;7.40;85.20
13458;DHT22;6801;53.018;11.560;2023-11-21T07:18:36;7.40;85.20
13458;DHT22;6801;53.018;11.560;2023-11-21T07:21:04;7.40;85.20
13458;DHT22;6801;53.018;11.560;2023-11-21T07:23:32;7.40;85.20
13458;DHT22;6801;53.018;11.560;2023-11-21T07:26:01;7.40;85.10
13458;DHT22;6801;53.018;11.560;2023-11-21T07:28:29;7.40;85.10
13458;DHT22;6801;53.018;11.560;2023-11-21T07:30:57;7.40;85.20
13458;DHT22;6801;53.018;11.560;2023-11-21T07:33:27;7.40;85.30
13458;DHT22;6801;53.018;11.560;2023-11-21T07:35:55;7.40;85.30
13458;DHT22;6801;53.018;11.560;2023-11-21T07:38:23;7.40;85.20
13458;DHT22;6801;53.018;11.560;2023-11-21T07:40:51;7.40;85.20
13458;DHT22;6801;53.018;11.560;2023-11-21T07:43:21;7.40;85.20
13458;DHT22;6801;53.018;11.560;2023-11-21T07:45:49;7.40;85.20
13458;DHT22;6801;53.018;11.560;2023-11-21T07:48:16;7.40;85.20
13458;DHT22;6801;53.018;11.560;2023-11-21T07:50:45;7.40;85.20
13458;DHT22;6801;53.018;11.560;2023-11-21T07:53:13;7.40;85.20
13458;DHT22;6801;53.018;11.560;2023-11-21T07:55:40;7.40;85.20
13458;DHT22;6801;53.018;11.560;2023-11-21T07:58:07;7.40;85.20
13458;DHT22;6801;53.018;11.560;2023-11-21T08:00:34;7.40;85.20
13458;DHT22;6801;53.018;11.560;2023-11-21T08:03:01;7.50;85.20
13458;DHT22;6801;53.018;11.560;2023-11-21T08:05:28;7.50;85.20
13458;DHT22;6801;53.018;11.560;2023-11-21T08:07:57;7.50;85.20
13458;DHT22;6801;53.018;11.560;2023-11-21T08:10:24;7.50;85.30
13458;DHT22;6801;53.018;11.560;2023-11-21T08:12:52;7.50;85.20
13458;DHT22;6801;53.018;11.560;2023-11-21T08:15:19;7.50;85.30
13458;DHT22;6801;53.018;11.560;2023-11-21T08:17:46;7.50;85.30
13458;DHT22;6801;53.018;11.560;2023-11-21T08:20:14;7.50;85.30
13458;DHT22;6801;53.018;11.560;2023-11-21T08:22:42;7.50;85.30
13458;DHT22;6801;53.018;11.560;2023-11-21T08:25:10;7.50;85.30
13458;DHT22;6801;53.018;11.560;2023-11-21T08:27:38;7.50;85.30
13458;DHT22;6801;53.018;11.560;2023-11-21T08:30:06;7.50;85.30
13458;DHT22;6801;53.018;11.560;2023-11-21T08:32:33;7.50;85.30
13458;DHT22;6801;53.018;11.560;2023-11-21T08:35:01;7.50;85.20
13458;DHT22;6801;53.018;11.560;2023-11-21T08:37:28;7.50;85.30
13458;DHT22;6801;53.018;11.560;2023-11-21T08:39:58;7.50;85.30
13458;DHT22;6801;53.018;11.560;2023-11-21T08:42:27;7.50;85.30
13458;DHT22;6801;53.018;11.560;2023-11-21T08:44:55;7.50;85.30
13458;DHT22;6801;53.018;11.560;2023-11-21T08:47:23;7.50;85.40
13458;DHT22;6801;53.018;11.560;2023-11-21T08:49:52;7.50;85.40
13458;DHT22;6801;53.018;11.560;2023-11-21T08:52:20;7.50;85.30
13458;DHT22;6801;53.018;11.560;2023-11-21T08:54:48;7.50;85.30
13458;DHT22;6801;53.018;11.560;2023-11-21T08:57:21;7.50;85.30
13458;DHT22;6801;53.018;11.560;2023-11-21T08:59:50;7.50;85.30
13458;DHT22;6801;53.018;11.560;2023-11-21T09:02:21;7.50;85.20
13458;DHT22;6801;53.018;11.560;2023-11-21T09:04:48;7.50;85.20
13458;DHT22;6801;53.018;11.560;2023-11-21T09:07:16;7.50;85.20
13458;DHT22;6801;53.018;11.560;2023-11-21T09:09:45;7.50;85.10
13458;DHT22;6801;53.018;11.560;2023-11-21T09:12:13;7.50;85.20
13458;DHT22;6801;53.018;11.560;2023-11-21T09:14:40;7.50;85.10
13458;DHT22;6801;53.018;11.560;2023-11-21T09:17:09;7.50;85.10
13458;DHT22;6801;53.018;11.560;2023-11-21T09:19:37;7.50;84.90
13458;DHT22;6801;53.018;11.560;2023-11-21T09:22:04;7.50;85.00
13458;DHT22;6801;53.018;11.560;2023-11-21T09:24:31;7.50;85.10
13458;DHT22;6801;53.018;11.560;2023-11-21T09:26:59;7.60;85.00
13458;DHT22;6801;53.018;11.560;2023-11-21T09:29:26;7.60;84.80
13458;DHT22;6801;53.018;11.560;2023-11-21T09:31:54;7.60;84.70
13458;DHT22;6801;53.018;11.560;2023-11-21T09:34:26;7.60;84.20
13458;DHT22;6801;53.018;11.560;2023-11-21T09:36:53;7.60;84.30
13458;DHT22;6801;53.018;11.560;2023-11-21T09:39:20;7.70;84.50
13458;DHT22;6801;53.018;11.560;2023-11-21T09:41:50;7.70;84.90
13458;DHT22;6801;53.018;11.560;2023-11-21T09:44:19;7.70;84.40
13458;DHT22;6801;53.018;11.560;2023-11-21T09:46:49;7.70;83.90
13458;DHT22;6801;53.018;11.560;2023-11-21T09:49:18;7.70;83.80
13458;DHT22;6801;53.018;11.560;2023-11-21T09:51:50;7.70;84.10
13458;DHT22;6801;53.018;11.560;2023-11-21T09:54:20;7.70;83.80
13458;DHT22;6801;53.018;11.560;2023-11-21T09:56:48;7.70;83.90
13458;DHT22;6801;53.018;11.560;2023-11-21T09:59:15;7.70;83.80
13458;DHT22;6801;53.018;11.560;2023-11-21T10:01:43;7.70;83.60
13458;DHT22;6801;53.018;11.560;2023-11-21T10:04:10;7.70;83.80
13458;DHT22;6801;53.018;11.560;2023-11-21T10:06:39;7.80;83.80
13458;DHT22;6801;53.018;11.560;2023-11-21T10:09:09;7.80;83.30
13458;DHT22;6801;53.018;11.560;2023-11-21T10:11:40;7.80;82.70
13458;DHT22;6801;53.018;11.560;2023-11-21T10:14:08;7.80;82.50
13458;DHT22;6801;53.018;11.560;2023-11-21T10:16:38;7.90;81.80
13458;DHT22;6801;53.018;11.560;2023-11-21T10:19:08;7.90;81.40
13458;DHT22;6801;53.018;11.560;2023-11-21T10:21:38;7.90;80.90
13458;DHT22;6801;53.018;11.560;2023-11-21T10:24:06;7.90;80.70
13458;DHT22;6801;53.018;11.560;2023-11-21T10:26:34;8.00;80.10
13458;DHT22;6801;53.018;11.560;2023-11-21T10:29:02;7.90;80.30
13458;DHT22;6801;53.018;11.560;2023-11-21T10:31:30;8.00;80.00
13458;DHT22;6801;53.018;11.560;2023-11-21T10:34:14;7.90;80.20
13458;DHT22;6801;53.018;11.560;2023-11-21T10:36:41;7.90;79.70
13458;DHT22;6801;53.018;11.560;2023-11-21T10:39:08;7.80;80.10
13458;DHT22;6801;53.018;11.560;2023-11-21T10:41:37;7.80;80.40
13458;DHT22;6801;53.018;11.560;2023-11-21T10:44:05;7.70;81.10
13458;DHT22;6801;53.018;11.560;2023-11-21T10:46:35;7.80;80.60
13458;DHT22;6801;53.018;11.560;2023-11-21T10:49:02;7.90;80.00
13458;DHT22;6801;53.018;11.560;2023-11-21T10:51:29;7.80;80.10
13458;DHT22;6801;53.018;11.560;2023-11-21T10:53:56;7.80;80.50
13458;DHT22;6801;53.018;11.560;2023-11-21T10:56:26;7.80;81.00
13458;DHT22;6801;53.018;11.560;2023-11-21T10:58:57;7.70;81.10
13458;DHT22;6801;53.018;11.560;2023-11-21T11:01:26;7.80;81.10
13458;DHT22;6801;53.018;11.560;2023-11-21T11:03:55;7.80;80.90
13458;DHT22;6801;53.018;11.560;2023-11-21T11:06:24;7.80;80.60
13458;DHT22;6801;53.018;11.560;2023-11-21T11:08:53;7.80;80.50
13458;DHT22;6801;53.018;11.560;2023-11-21T11:11:21;7.80;80.40
13458;DHT22;6801;53.018;11.560;2023-11-21T11:13:48;7.80;80.80
13458;DHT22;6801;53.018;11.560;2023-11-21T11:16:17;7.90;80.90
13458;DHT22;6801;53.018;11.560;2023-11-21T11:18:44;7.80;80.60
13458;DHT22;6801;53.018;11.560;2023-11-21T11:21:23;7.80;80.80
13458;DHT22;6801;53.018;11.560;2023-11-21T11:24:03;7.90;80.70
13458;DHT22;6801;53.018;11.560;2023-11-21T11:26:39;8.00;79.90
13458;DHT22;6801;53.018;11.560;2023-11-21T11:29:17;8.00;79.20
13458;DHT22;6801;53.018;11.560;2023-11-21T11:31:55;8.00;79.60
13458;DHT22;6801;53.018;11.560;2023-11-21T11:34:28;8.00;79.40
13458;DHT22;6801;53.018;11.560;2023-11-21T11:37:00;8.00;78.80
13458;DHT22;6801;53.018;11.560;2023-11-21T11:39:29;8.00;78.80
13458;DHT22;6801;53.018;11.560;2023-11-21T11:41:57;8.00;78.30
13458;DHT22;6801;53.018;11.560;2023-11-21T11:44:51;8.00;77.50
13458;DHT22;6801;53.018;11.560;2023-11-21T11:47:24;7.90;77.90
13458;DHT22;6801;53.018;11.560;2023-11-21T11:49:57;7.90;78.80
13458;DHT22;6801;53.018;11.560;2023-11-21T11:52:39;7.80;79.60
13458;DHT22;6801;53.018;11.560;2023-11-21T11:55:08;7.80;78.40
13458;DHT22;6801;53.018;11.560;2023-11-21T11:57:37;7.80;77.90
13458;DHT22;6801;53.018;11.560;2023-11-21T12:00:09;7.90;78.30
13458;DHT22;6801;53.018;11.560;2023-11-21T12:02:38;7.90;78.60
13458;DHT22;6801;53.018;11.560;2023-11-21T12:05:09;7.80;79.10
13458;DHT22;6801;53.018;11.560;2023-11-21T12:07:44;7.80;79.30
13458;DHT22;6801;53.018;11.560;2023-11-21T12:10:16;7.70;79.30
13458;DHT22;6801;53.018;11.560;2023-11-21T12:12:46;7.70;79.10
13458;DHT22;6801;53.018;11.560;2023-11-21T12:15:14;7.70;79.80
13458;DHT22;6801;53.018;11.560;2023-11-21T12:17:43;7.70;79.40
13458;DHT22;6801;53.018;11.560;2023-11-21T12:20:11;7.80;78.50
13458;DHT22;6801;53.018;11.560;2023-11-21T12:22:44;7.70;78.70
13458;DHT22;6801;53.018;11.560;2023-11-21T12:25:15;7.70;78.70
13458;DHT22;6801;53.018;11.560;2023-11-21T12:27:45;7.70;79.10
13458;DHT22;6801;53.018;11.560;2023-11-21T12:30:16;7.60;79.10
13458;DHT22;6801;53.018;11.560;2023-11-21T12:32:47;7.70;79.50
13458;DHT22;6801;53.018;11.560;2023-11-21T12:35:15;7.60;79.50
13458;DHT22;6801;53.018;11.560;2023-11-21T12:37:45;7.70;79.70
13458;DHT22;6801;53.018;11.560;2023-11-21T12:40:13;7.70;80.00
13458;DHT22;6801;53.018;11.560;2023-11-21T12:42:42;7.70;79.50
13458;DHT22;6801;53.018;11.560;2023-11-21T12:45:18;7.70;79.10
13458;DHT22;6801;53.018;11.560;2023-11-21T12:47:48;7.80;78.10
13458;DHT22;6801;53.018;11.560;2023-11-21T12:50:15;7.70;78.20
13458;DHT22;6801;53.018;11.560;2023-11-21T12:52:47;7.80;78.90
13458;DHT22;6801;53.018;11.560;2023-11-21T12:55:16;7.70;78.40
13458;DHT22;6801;53.018;11.560;2023-11-21T12:57:45;7.70;78.20
13458;DHT22;6801;53.018;11.560;2023-11-21T13:00:13;7.70;78.90
13458;DHT22;6801;53.018;11.560;2023-11-21T13:02:55;7.70;79.40
13458;DHT22;6801;53.018;11.560;2023-11-21T13:05:28;7.70;80.00
13458;DHT22;6801;53.018;11.560;2023-11-21T13:07:57;7.70;79.50
13458;DHT22;6801;53.018;11.560;2023-11-21T13:10:26;7.70;79.60
13458;DHT22;6801;53.018;11.560;2023-11-21T13:12:57;7.70;79.60
13458;DHT22;6801;53.018;11.560;2023-11-21T13:15:26;7.70;79.50
13458;DHT22;6801;53.018;11.560;2023-11-21T13:17:55;7.70;78.50
13458;DHT22;6801;53.018;11.560;2023-11-21T13:20:23;7.70;78.40
13458;DHT22;6801;53.018;11.560;2023-11-21T13:22:52;7.70;77.80
13458;DHT22;6801;53.018;11.560;2023-11-21T13:25:23;7.70;78.10
13458;DHT22;6801;53.018;11.560;2023-11-21T13:27:53;7.60;79.00
13458;DHT22;6801;53.018;11.560;2023-11-21T13:30:21;7.60;78.70
13458;DHT22;6801;53.018;11.560;2023-11-21T13:32:52;7.60;78.20
13458;DHT22;6801;53.018;11.560;2023-11-21T13:35:24;7.60;77.80
13458;DHT22;6801;53.018;11.560;2023-11-21T13:38:04;7.60;78.20
13458;DHT22;6801;53.018;11.560;2023-11-21T13:40:33;7.50;78.80
13458;DHT22;6801;53.018;11.560;2023-11-21T13:43:06;7.50;79.20
13458;DHT22;6801;53.018;11.560;2023-11-21T13:45:35;7.50;79.50
13458;DHT22;6801;53.018;11.560;2023-11-21T13:48:02;7.50;79.60
13458;DHT22;6801;53.018;11.560;2023-11-21T13:50:34;7.50;80.00
13458;DHT22;6801;53.018;11.560;2023-11-21T13:53:01;7.50;79.80
13458;DHT22;6801;53.018;11.560;2023-11-21T13:55:36;7.40;79.90
13458;DHT22;6801;53.018;11.560;2023-11-21T13:58:05;7.40;80.00
13458;DHT22;6801;53.018;11.560;2023-11-21T14:00:35;7.50;79.60
13458;DHT22;6801;53.018;11.560;2023-11-21T14:03:10;7.40;79.40
13458;DHT22;6801;53.018;11.560;2023-11-21T14:05:46;7.40;79.70
13458;DHT22;6801;53.018;11.560;2023-11-21T14:08:18;7.30;79.60
13458;DHT22;6801;53.018;11.560;2023-11-21T14:10:46;7.40;79.30
13458;DHT22;6801;53.018;11.560;2023-11-21T14:13:16;7.40;79.10
13458;DHT22;6801;53.018;11.560;2023-11-21T14:15:43;7.40;79.10
13458;DHT22;6801;53.018;11.560;2023-11-21T14:18:12;7.50;78.50
13458;DHT22;6801;53.018;11.560;2023-11-21T14:20:42;7.40;78.10
13458;DHT22;6801;53.018;11.560;2023-11-21T14:23:11;7.30;78.60
13458;DHT22;6801;53.018;11.560;2023-11-21T14:25:38;7.30;78.50
13458;DHT22;6801;53.018;11.560;2023-11-21T14:28:07;7.20;78.60
13458;DHT22;6801;53.018;11.560;2023-11-21T14:30:37;7.20;79.10
13458;DHT22;6801;53.018;11.560;2023-11-21T14:33:05;7.20;79.40
13458;DHT22;6801;53.018;11.560;2023-11-21T14:35:34;7.20;79.50
13458;DHT22;6801;53.018;11.560;2023-11-21T14:38:02;7.10;79.80
13458;DHT22;6801;53.018;11.560;2023-11-21T14:40:32;7.10;79.90
13458;DHT22;6801;53.018;11.560;2023-11-21T14:43:01;7.10;79.80
13458;DHT22;6801;53.018;11.560;2023-11-21T14:45:31;7.20;79.60
13458;DHT22;6801;53.018;11.560;2023-11-21T14:47:58;7.20;79.50
13458;DHT22;6801;53.018;11.560;2023-11-21T14:50:33;7.00;79.40
13458;DHT22;6801;53.018;11.560;2023-11-21T14:53:23;7.10;79.70
13458;DHT22;6801;53.018;11.560;2023-11-21T14:56:10;7.10;79.20
13458;DHT22;6801;53.018;11.560;2023-11-21T14:58:36;7.10;79.30
13458;DHT22;6801;53.018;11.560;2023-11-21T15:01:04;7.00;78.90
13458;DHT22;6801;53.018;11.560;2023-11-21T15:03:31;7.00;79.00
13458;DHT22;6801;53.018;11.560;2023-11-21T15:06:09;7.00;79.30
13458;DHT22;6801;53.018;11.560;2023-11-21T15:08:49;7.00;79.40
13458;DHT22;6801;53.018;11.560;2023-11-21T15:11:24;7.10;79.10
13458;DHT22;6801;53.018;11.560;2023-11-21T15:13:56;7.20;78.30
13458;DHT22;6801;53.018;11.560;2023-11-21T15:16:23;7.20;78.10
13458;DHT22;6801;53.018;11.560;2023-11-21T15:18:51;7.10;78.20
13458;DHT22;6801;53.018;11.560;2023-11-21T15:21:19;7.10;77.80
13458;DHT22;6801;53.018;11.560;2023-11-21T15:23:47;7.10;78.20
13458;DHT22;6801;53.018;11.560;2023-11-21T15:26:14;7.00;78.00
13458;DHT22;6801;53.018;11.560;2023-11-21T15:28:43;7.00;78.20
13458;DHT22;6801;53.018;11.560;2023-11-21T15:31:10;7.00;78.10
13458;DHT22;6801;53.018;11.560;2023-11-21T15:33:38;7.00;77.40
13458;DHT22;6801;53.018;11.560;2023-11-21T15:36:05;6.90;77.10
13458;DHT22;6801;53.018;11.560;2023-11-21T15:38:35;6.90;77.30
13458;DHT22;6801;53.018;11.560;2023-11-21T15:41:03;6.90;77.20
13458;DHT22;6801;53.018;11.560;2023-11-21T15:43:33;6.90;77.20
13458;DHT22;6801;53.018;11.560;2023-11-21T15:46:01;6.90;77.30
13458;DHT22;6801;53.018;11.560;2023-11-21T15:48:33;6.80;77.10
13458;DHT22;6801;53.018;11.560;2023-11-21T15:51:01;6.80;76.50
13458;DHT22;6801;53.018;11.560;2023-11-21T15:53:28;6.70;78.00
13458;DHT22;6801;53.018;11.560;2023-11-21T15:55:55;6.80;77.10